createdAt,value
2023-04-28T00:01:20.965Z,100162.53
2023-04-28T00:05:25.570Z,100167.72
2023-04-28T00:09:28.763Z,100157.09
2023-04-28T00:13:31.790Z,100157.88
2023-04-28T00:17:35.128Z,100163.00
2023-04-28T00:21:39.848Z,100152.38
2023-04-28T00:25:42.909Z,100152.25
2023-04-28T00:29:46.002Z,100148.69
2023-04-28T00:33:52.838Z,100141.56
2023-04-28T00:37:57.261Z,100152.09
2023-04-28T00:42:00.432Z,100145.13
2023-04-28T00:46:03.772Z,100144.16
2023-04-28T00:50:07.810Z,100140.56
2023-04-28T00:54:15.312Z,100130.84
2023-04-28T00:58:18.654Z,100136.91
2023-04-28T01:02:21.926Z,100127.31
2023-04-28T01:06:25.480Z,100129.94
2023-04-28T01:10:33.665Z,100130.84
2023-04-28T01:14:44.534Z,100132.63
2023-04-28T01:18:49.242Z,100127.38
2023-04-28T01:22:52.352Z,100129.09
2023-04-28T01:26:57.257Z,100142.19
2023-04-28T01:31:00.311Z,100123.75
2023-04-28T01:35:03.714Z,100118.50
2023-04-28T01:39:07.018Z,100117.56
2023-04-28T01:43:11.512Z,100120.16
2023-04-28T01:47:14.601Z,100108.72
2023-04-28T01:51:17.791Z,100106.00
2023-04-28T01:55:21.577Z,100115.47
2023-04-28T01:59:27.030Z,100115.41
2023-04-28T02:03:30.567Z,100120.53
2023-04-28T02:07:33.818Z,100117.81
2023-04-28T02:11:36.948Z,100116.84
2023-04-28T02:15:42.732Z,100125.50
2023-04-28T02:19:45.781Z,100125.34
2023-04-28T02:23:50.538Z,100111.34
2023-04-28T02:27:53.628Z,100106.94
2023-04-28T02:31:58.133Z,100118.28
2023-04-28T02:36:01.480Z,100112.09
2023-04-28T02:40:05.201Z,100119.00
2023-04-28T02:44:08.218Z,100120.75
2023-04-28T02:48:12.714Z,100117.34
2023-04-28T02:52:16.003Z,100124.38
2023-04-28T02:56:19.323Z,100114.75
2023-04-28T03:00:22.610Z,100113.91
2023-04-28T03:04:28.624Z,100106.88
2023-04-28T03:08:31.867Z,100092.84
2023-04-28T03:12:34.904Z,100087.50
2023-04-28T03:16:38.031Z,100078.66
2023-04-28T03:20:42.625Z,100080.22
2023-04-28T03:24:46.090Z,100082.78
2023-04-28T03:28:49.137Z,100080.09
2023-04-28T03:32:52.883Z,100087.06
2023-04-28T03:36:57.349Z,100084.38
2023-04-28T03:41:05.506Z,100092.25
2023-04-28T03:45:31.654Z,100084.41
2023-04-28T03:49:35.078Z,100082.63
2023-04-28T03:53:39.775Z,100078.22
2023-04-28T03:57:43.256Z,100086.91
2023-04-28T04:01:46.268Z,100087.75
2023-04-28T04:05:49.698Z,100091.25
2023-04-28T04:09:54.184Z,100083.47
2023-04-28T04:13:57.382Z,100092.25
2023-04-28T04:18:01.970Z,100096.63
2023-04-28T04:22:14.328Z,100089.69
2023-04-28T04:26:19.182Z,100084.50
2023-04-28T04:30:24.500Z,100081.88
2023-04-28T04:34:27.665Z,100081.03
2023-04-28T04:38:31.159Z,100081.97
2023-04-28T04:42:39.997Z,100085.59
2023-04-28T04:46:46.170Z,100077.81
2023-04-28T04:50:49.752Z,100076.94
2023-04-28T04:54:53.216Z,100062.09
2023-04-28T04:58:57.980Z,100070.06
2023-04-28T05:03:24.410Z,100067.53
2023-04-28T05:07:27.948Z,100065.00
2023-04-28T05:11:32.342Z,100069.50
2023-04-28T05:15:37.038Z,100068.72
2023-04-28T05:19:57.351Z,100064.34
2023-04-28T05:24:00.874Z,100075.81
2023-04-28T05:28:07.566Z,100068.84
2023-04-28T05:32:12.467Z,100069.78
2023-04-28T05:36:17.079Z,100063.81
2023-04-28T05:40:22.309Z,100053.56
2023-04-28T05:44:25.768Z,100052.81
2023-04-28T05:48:30.259Z,100055.63
2023-04-28T05:52:33.390Z,100053.09
2023-04-28T05:56:36.654Z,100058.50
2023-04-28T06:00:39.962Z,100048.09
2023-04-28T06:04:44.886Z,100049.16
2023-04-28T06:08:48.160Z,100059.03
2023-04-28T06:12:51.200Z,100063.63
2023-04-28T06:16:54.282Z,100057.66
2023-04-28T06:20:58.706Z,100047.31
2023-04-28T06:25:01.818Z,100029.06
2023-04-28T06:29:10.825Z,100037.97
2023-04-28T06:33:13.929Z,100032.88
2023-04-28T06:37:19.074Z,100035.59
2023-04-28T06:41:24.068Z,100033.06
2023-04-28T06:45:28.693Z,100030.47
2023-04-28T06:49:33.232Z,100019.03
2023-04-28T06:53:38.379Z,100010.25
2023-04-28T07:01:47.780Z,99993.50
2023-04-28T07:05:51.132Z,99989.06
2023-04-28T07:09:56.036Z,99993.50
2023-04-28T07:13:59.055Z,99990.84
2023-04-28T07:18:02.149Z,99989.94
2023-04-28T07:22:05.433Z,99975.84
2023-04-28T07:26:09.832Z,99969.63
2023-04-28T07:30:26.531Z,99976.69
2023-04-28T07:34:30.726Z,99992.44
2023-04-28T07:38:35.272Z,99987.06
2023-04-28T07:42:39.668Z,99979.91
2023-04-28T07:46:42.778Z,99973.59
2023-04-28T07:50:45.978Z,99973.47
2023-04-28T07:54:49.021Z,99967.94
2023-04-28T07:58:53.810Z,99967.78
2023-04-28T08:02:57.786Z,99974.63
2023-04-28T08:07:01.088Z,99979.81
2023-04-28T08:11:04.214Z,99970.09
2023-04-28T08:15:10.381Z,99976.25
2023-04-28T08:19:13.433Z,99971.75
2023-04-28T08:23:16.556Z,99961.03
2023-04-28T08:27:19.666Z,99952.03
2023-04-28T08:31:24.177Z,99930.50
2023-04-28T08:35:27.503Z,99931.09
2023-04-28T08:39:31.770Z,99906.09
2023-04-28T08:43:36.349Z,99903.16
2023-04-28T08:47:45.950Z,99911.69
2023-04-28T08:51:54.283Z,99904.94
2023-04-28T08:55:59.042Z,99896.56
2023-04-28T09:00:02.747Z,99894.41
2023-04-28T09:04:08.375Z,99894.13
2023-04-28T09:08:12.332Z,99885.91
2023-04-28T09:12:15.385Z,99887.50
2023-04-28T09:16:18.812Z,99893.41
2023-04-28T09:20:24.392Z,99886.69
2023-04-28T09:24:29.567Z,99891.81
2023-04-28T09:28:33.247Z,99877.66
2023-04-28T09:32:36.388Z,99875.78
2023-04-28T09:36:40.789Z,99867.59
2023-04-28T09:40:56.725Z,99861.34
2023-04-28T09:45:00.172Z,99847.06
2023-04-28T09:49:03.318Z,99828.41
2023-04-28T09:53:13.098Z,99829.88
2023-04-28T09:57:17.037Z,99822.34
2023-04-28T10:01:20.276Z,99816.81
2023-04-28T10:05:24.800Z,99809.38
2023-04-28T10:09:29.709Z,99799.34
2023-04-28T10:13:33.596Z,99792.69
2023-04-28T10:17:38.404Z,99800.38
2023-04-28T10:21:49.456Z,99786.06
2023-04-28T10:25:58.251Z,99779.75
2023-04-28T10:30:26.253Z,99778.84
2023-04-28T10:34:31.437Z,99776.19
2023-04-28T10:38:35.061Z,99763.63
2023-04-28T10:42:56.459Z,99763.59
2023-04-28T10:47:03.906Z,99750.19
2023-04-28T10:51:34.924Z,99755.84
2023-04-28T10:55:39.984Z,99748.00
2023-04-28T10:59:44.412Z,99750.19
2023-04-28T11:03:51.970Z,99745.38
2023-04-28T11:08:33.293Z,99741.09
2023-04-28T11:12:36.628Z,99722.78
2023-04-28T11:16:51.809Z,99731.69
2023-04-28T11:20:58.701Z,99718.94
2023-04-28T11:25:03.213Z,99704.56
2023-04-28T11:29:06.658Z,99692.47
2023-04-28T11:33:11.289Z,99696.91
2023-04-28T11:37:17.043Z,99685.22
2023-04-28T11:41:21.125Z,99664.38
2023-04-28T11:45:24.145Z,99672.59
2023-04-28T11:49:30.400Z,99667.06
2023-04-28T11:53:43.077Z,99658.84
2023-04-28T11:57:46.384Z,99657.13
2023-04-28T12:01:50.719Z,99649.50
2023-04-28T12:05:55.330Z,99666.56
2023-04-28T12:10:12.546Z,99650.84
2023-04-28T12:14:15.935Z,99648.06
2023-04-28T12:18:19.530Z,99648.81
2023-04-28T12:22:24.872Z,99657.03
2023-04-28T12:26:28.068Z,99672.34
2023-04-28T12:30:33.439Z,99669.59
2023-04-28T12:34:37.269Z,99666.34
2023-04-28T12:38:49.066Z,99677.41
2023-04-28T12:42:52.331Z,99668.63
2023-04-28T12:46:56.186Z,99664.31
2023-04-28T12:50:59.195Z,99646.72
2023-04-28T12:55:03.598Z,99646.81
2023-04-28T12:59:06.916Z,99665.50
2023-04-28T13:03:10.245Z,99661.28
2023-04-28T13:07:13.673Z,99657.59
2023-04-28T13:11:22.379Z,99656.06
2023-04-28T13:15:27.267Z,99650.91
2023-04-28T13:19:31.270Z,99665.50
2023-04-28T13:23:34.493Z,99649.72
2023-04-28T13:27:40.107Z,99660.69
2023-04-28T13:31:44.835Z,99669.97
2023-04-28T13:35:47.939Z,99660.19
2023-04-28T13:39:51.103Z,99654.75
2023-04-28T13:43:55.734Z,99652.03
2023-04-28T13:47:59.087Z,99652.94
2023-04-28T13:52:03.635Z,99647.91
2023-04-28T13:56:07.997Z,99631.03
2023-04-28T14:00:13.700Z,99632.28
2023-04-28T14:04:17.027Z,99637.81
2023-04-28T14:08:20.878Z,99640.53
2023-04-28T14:12:24.255Z,99638.75
2023-04-28T14:16:29.101Z,99627.56
2023-04-28T14:20:32.432Z,99638.41
2023-04-28T14:24:35.612Z,99625.09
2023-04-28T14:28:38.646Z,99632.81
2023-04-28T14:32:43.116Z,99627.53
2023-04-28T14:36:46.794Z,99631.97
2023-04-28T14:40:50.157Z,99633.91
2023-04-28T14:44:54.561Z,99635.94
2023-04-28T14:48:59.450Z,99623.59
2023-04-28T14:53:05.634Z,99623.91
2023-04-28T14:57:08.769Z,99609.94
2023-04-28T15:01:11.965Z,99592.50
2023-04-28T15:05:16.397Z,99567.91
2023-04-28T15:09:19.486Z,99566.47
2023-04-28T15:13:25.223Z,99555.97
2023-04-28T15:17:28.491Z,99580.97
2023-04-28T15:21:33.008Z,99589.09
2023-04-28T15:25:36.189Z,99600.63
2023-04-28T15:29:39.226Z,99606.06
2023-04-28T15:33:42.251Z,99593.72
2023-04-28T15:37:49.138Z,99597.50
2023-04-28T15:41:52.363Z,99594.88
2023-04-28T15:45:55.627Z,99586.88
2023-04-28T15:49:59.570Z,99578.13
2023-04-28T15:54:03.968Z,99579.97
2023-04-28T15:58:08.663Z,99577.59
2023-04-28T16:02:11.663Z,99578.91
2023-04-28T16:06:14.804Z,99586.31
2023-04-28T16:10:19.209Z,99592.78
2023-04-28T16:14:22.447Z,99594.81
2023-04-28T16:18:25.747Z,99594.16
2023-04-28T16:22:29.798Z,99594.38
2023-04-28T16:26:34.314Z,99596.28
2023-04-28T16:30:37.331Z,99600.78
2023-04-28T16:34:40.362Z,99593.72
2023-04-28T16:38:45.727Z,99584.97
2023-04-28T16:42:50.855Z,99584.13
2023-04-28T16:46:54.280Z,99586.88
2023-04-28T16:50:57.340Z,99594.84
2023-04-28T16:55:00.549Z,99596.59
2023-04-28T16:59:04.979Z,99593.25
2023-04-28T17:03:08.173Z,99583.69
2023-04-28T17:07:11.505Z,99590.03
2023-04-28T17:11:17.190Z,99586.72
2023-04-28T17:15:21.853Z,99573.69
2023-04-28T17:19:25.002Z,99580.09
2023-04-28T17:23:28.278Z,99584.63
2023-04-28T17:27:31.646Z,99583.88
2023-04-28T17:31:38.787Z,99572.53
2023-04-28T17:35:42.305Z,99571.94
2023-04-28T17:39:45.333Z,99575.53
2023-04-28T17:43:49.002Z,99579.13
2023-04-28T17:47:53.467Z,99571.19
2023-04-28T17:51:56.574Z,99569.56
2023-04-28T17:56:01.555Z,99572.25
2023-04-28T18:00:05.300Z,99570.59
2023-04-28T18:04:16.253Z,99565.34
2023-04-28T18:08:19.250Z,99553.13
2023-04-28T18:12:22.364Z,99556.72
2023-04-28T18:16:26.102Z,99551.44
2023-04-28T18:20:30.600Z,99543.59
2023-04-28T18:24:33.724Z,99535.75
2023-04-28T18:28:37.663Z,99552.72
2023-04-28T18:32:40.764Z,99570.44
2023-04-28T18:36:45.250Z,99565.19
2023-04-28T18:40:48.299Z,99558.25
2023-04-28T18:44:53.821Z,99550.41
2023-04-28T18:48:57.368Z,99553.13
2023-04-28T18:53:02.520Z,99568.13
2023-04-28T18:57:06.664Z,99562.00
2023-04-28T19:01:14.883Z,99562.84
2023-04-28T19:05:18.052Z,99555.84
2023-04-28T19:09:22.612Z,99565.63
2023-04-28T19:13:25.753Z,99568.31
2023-04-28T19:17:29.553Z,99576.28
2023-04-28T19:21:35.485Z,99578.94
2023-04-28T19:25:40.011Z,99568.38
2023-04-28T19:29:43.553Z,99563.97
2023-04-28T19:33:46.541Z,99567.53
2023-04-28T19:37:49.935Z,99558.75
2023-04-28T19:41:54.867Z,99564.97
2023-04-28T19:45:58.183Z,99573.91
2023-04-28T19:50:01.492Z,99571.25
2023-04-28T19:54:04.579Z,99573.03
2023-04-28T19:58:10.157Z,99560.69
2023-04-28T20:02:13.410Z,99560.69
2023-04-28T20:06:17.744Z,99565.97
2023-04-28T20:10:20.918Z,99565.13
2023-04-28T20:14:25.772Z,99550.09
2023-04-28T20:18:29.088Z,99559.00
2023-04-28T20:22:32.372Z,99563.41
2023-04-28T20:26:35.630Z,99554.63
2023-04-28T20:30:41.980Z,99563.50
2023-04-28T20:34:45.564Z,99571.47
2023-04-28T20:38:49.203Z,99565.41
2023-04-28T20:42:52.356Z,99558.34
2023-04-28T20:46:57.303Z,99553.19
2023-04-28T20:51:02.857Z,99555.84
2023-04-28T20:55:07.049Z,99546.22
2023-04-28T20:59:10.169Z,99547.16
2023-04-28T21:03:15.844Z,99533.91
2023-04-28T21:07:19.068Z,99551.53
2023-04-28T21:11:22.091Z,99555.91
2023-04-28T21:15:25.792Z,99557.69
2023-04-28T21:19:30.375Z,99560.34
2023-04-28T21:23:33.409Z,99551.53
2023-04-28T21:27:36.478Z,99551.53
2023-04-28T21:31:39.742Z,99544.47
2023-04-28T21:35:44.307Z,99544.47
2023-04-28T21:39:47.392Z,99540.19
2023-04-28T21:43:50.383Z,99539.34
2023-04-28T21:47:53.514Z,99552.59
2023-04-28T21:51:58.020Z,99544.63
2023-04-28T21:56:01.075Z,99546.38
2023-04-28T22:00:06.366Z,99549.00
2023-04-28T22:04:16.848Z,99548.16
2023-04-28T22:08:21.747Z,99536.72
2023-04-28T22:12:24.955Z,99543.84
2023-04-28T22:16:28.377Z,99535.88
2023-04-28T22:20:32.111Z,99542.06
2023-04-28T22:24:37.185Z,99541.19
2023-04-28T22:28:40.196Z,99538.59
2023-04-28T22:32:44.666Z,99537.75
2023-04-28T22:36:47.905Z,99533.31
2023-04-28T22:40:52.611Z,99541.22
2023-04-28T22:44:55.623Z,99546.56
2023-04-28T22:48:59.022Z,99551.03
2023-04-28T22:53:03.884Z,99548.41
2023-04-28T22:57:08.276Z,99539.63
2023-04-28T23:01:11.663Z,99542.28
2023-04-28T23:05:14.879Z,99546.69
2023-04-28T23:09:17.917Z,99537.81
2023-04-28T23:13:22.392Z,99537.00
2023-04-28T23:17:25.520Z,99527.34
2023-04-28T23:21:29.494Z,99528.25
2023-04-28T23:25:32.561Z,99528.22
2023-04-28T23:29:37.818Z,99515.84
2023-04-28T23:33:40.965Z,99504.41
2023-04-28T23:37:44.264Z,99495.63
2023-04-28T23:41:47.358Z,99508.03
2023-04-28T23:45:51.935Z,99506.25
2023-04-28T23:49:55.068Z,99497.44
2023-04-28T23:53:58.076Z,99504.53
2023-04-28T23:58:01.232Z,99507.19
